sensor_id;sensor_type;location;lat;lon;timestamp;P1;durP1;ratioP1;P2;durP2;ratioP2
10473;SDS011;5284;50.446;7.904;2023-04-26T00:02:57;9.00;;;3.58;;
10473;SDS011;5284;50.446;7.904;2023-04-26T00:08:02;8.40;;;3.42;;
10473;SDS011;5284;50.446;7.904;2023-04-26T00:13:05;9.77;;;4.20;;
10473;SDS011;5284;50.446;7.904;2023-04-26T00:18:08;10.32;;;3.78;;
10473;SDS011;5284;50.446;7.904;2023-04-26T00:23:14;7.13;;;2.97;;
10473;SDS011;5284;50.446;7.904;2023-04-26T00:28:17;9.45;;;3.83;;
10473;SDS011;5284;50.446;7.904;2023-04-26T00:33:20;15.30;;;3.05;;
10473;SDS011;5284;50.446;7.904;2023-04-26T00:38:25;12.77;;;3.28;;
10473;SDS011;5284;50.446;7.904;2023-04-26T00:43:27;18.42;;;2.83;;
10473;SDS011;5284;50.446;7.904;2023-04-26T00:48:30;18.05;;;4.57;;
10473;SDS011;5284;50.446;7.904;2023-04-26T00:53:35;11.32;;;3.70;;
10473;SDS011;5284;50.446;7.904;2023-04-26T00:58:38;9.98;;;3.78;;
10473;SDS011;5284;50.446;7.904;2023-04-26T01:03:41;14.88;;;4.40;;
10473;SDS011;5284;50.446;7.904;2023-04-26T01:08:48;12.00;;;3.55;;
10473;SDS011;5284;50.446;7.904;2023-04-26T01:13:55;7.13;;;3.53;;
10473;SDS011;5284;50.446;7.904;2023-04-26T01:19:05;19.20;;;3.67;;
10473;SDS011;5284;50.446;7.904;2023-04-26T01:24:11;6.53;;;3.92;;
10473;SDS011;5284;50.446;7.904;2023-04-26T01:29:15;5.57;;;3.28;;
10473;SDS011;5284;50.446;7.904;2023-04-26T01:34:19;11.68;;;3.47;;
10473;SDS011;5284;50.446;7.904;2023-04-26T01:39:23;7.78;;;3.17;;
10473;SDS011;5284;50.446;7.904;2023-04-26T01:44:26;8.10;;;3.20;;
10473;SDS011;5284;50.446;7.904;2023-04-26T01:49:28;8.02;;;3.25;;
10473;SDS011;5284;50.446;7.904;2023-04-26T01:54:33;13.73;;;3.30;;
10473;SDS011;5284;50.446;7.904;2023-04-26T01:59:36;6.88;;;3.00;;
10473;SDS011;5284;50.446;7.904;2023-04-26T02:04:38;6.35;;;3.10;;
10473;SDS011;5284;50.446;7.904;2023-04-26T02:09:42;7.70;;;3.05;;
10473;SDS011;5284;50.446;7.904;2023-04-26T02:14:46;6.68;;;2.72;;
10473;SDS011;5284;50.446;7.904;2023-04-26T02:19:49;9.68;;;3.42;;
10473;SDS011;5284;50.446;7.904;2023-04-26T02:24:53;7.53;;;3.35;;
10473;SDS011;5284;50.446;7.904;2023-04-26T02:30:00;8.07;;;3.35;;
10473;SDS011;5284;50.446;7.904;2023-04-26T02:35:04;9.35;;;2.88;;
10473;SDS011;5284;50.446;7.904;2023-04-26T02:40:10;8.70;;;3.63;;
10473;SDS011;5284;50.446;7.904;2023-04-26T02:45:14;7.95;;;3.30;;
10473;SDS011;5284;50.446;7.904;2023-04-26T02:50:17;13.65;;;4.13;;
10473;SDS011;5284;50.446;7.904;2023-04-26T02:55:22;12.82;;;3.63;;
10473;SDS011;5284;50.446;7.904;2023-04-26T03:00:25;7.03;;;3.00;;
10473;SDS011;5284;50.446;7.904;2023-04-26T03:05:28;9.13;;;4.47;;
10473;SDS011;5284;50.446;7.904;2023-04-26T03:10:33;15.23;;;5.03;;
10473;SDS011;5284;50.446;7.904;2023-04-26T03:15:35;7.90;;;4.25;;
10473;SDS011;5284;50.446;7.904;2023-04-26T03:20:38;8.52;;;3.83;;
10473;SDS011;5284;50.446;7.904;2023-04-26T03:25:44;16.42;;;4.85;;
10473;SDS011;5284;50.446;7.904;2023-04-26T03:30:47;14.25;;;4.20;;
10473;SDS011;5284;50.446;7.904;2023-04-26T03:35:51;11.70;;;4.45;;
10473;SDS011;5284;50.446;7.904;2023-04-26T03:40:55;14.90;;;4.70;;
10473;SDS011;5284;50.446;7.904;2023-04-26T03:45:59;12.02;;;4.68;;
10473;SDS011;5284;50.446;7.904;2023-04-26T03:51:02;15.00;;;4.10;;
10473;SDS011;5284;50.446;7.904;2023-04-26T03:56:07;15.95;;;4.95;;
10473;SDS011;5284;50.446;7.904;2023-04-26T04:01:10;22.98;;;5.38;;
10473;SDS011;5284;50.446;7.904;2023-04-26T04:06:14;12.02;;;4.93;;
10473;SDS011;5284;50.446;7.904;2023-04-26T04:11:18;11.13;;;4.30;;
10473;SDS011;5284;50.446;7.904;2023-04-26T04:16:21;15.57;;;5.00;;
10473;SDS011;5284;50.446;7.904;2023-04-26T04:21:24;19.83;;;4.47;;
10473;SDS011;5284;50.446;7.904;2023-04-26T04:26:30;11.45;;;4.50;;
10473;SDS011;5284;50.446;7.904;2023-04-26T04:31:33;10.75;;;3.75;;
10473;SDS011;5284;50.446;7.904;2023-04-26T04:36:37;10.13;;;4.55;;
10473;SDS011;5284;50.446;7.904;2023-04-26T04:41:42;10.50;;;5.00;;
10473;SDS011;5284;50.446;7.904;2023-04-26T04:46:50;9.45;;;4.50;;
10473;SDS011;5284;50.446;7.904;2023-04-26T04:51:53;7.65;;;2.70;;
10473;SDS011;5284;50.446;7.904;2023-04-26T04:56:59;12.65;;;4.07;;
10473;SDS011;5284;50.446;7.904;2023-04-26T05:02:04;13.63;;;3.73;;
10473;SDS011;5284;50.446;7.904;2023-04-26T05:07:07;17.08;;;3.90;;
10473;SDS011;5284;50.446;7.904;2023-04-26T05:12:14;6.95;;;3.72;;
10473;SDS011;5284;50.446;7.904;2023-04-26T05:17:17;8.07;;;3.25;;
10473;SDS011;5284;50.446;7.904;2023-04-26T05:22:20;13.60;;;4.55;;
10473;SDS011;5284;50.446;7.904;2023-04-26T05:27:26;12.10;;;5.65;;
10473;SDS011;5284;50.446;7.904;2023-04-26T05:32:47;14.90;;;4.57;;
10473;SDS011;5284;50.446;7.904;2023-04-26T05:38:06;18.92;;;5.32;;
10473;SDS011;5284;50.446;7.904;2023-04-26T05:43:10;10.95;;;4.22;;
10473;SDS011;5284;50.446;7.904;2023-04-26T05:48:15;7.03;;;4.15;;
10473;SDS011;5284;50.446;7.904;2023-04-26T05:53:19;16.25;;;5.10;;
10473;SDS011;5284;50.446;7.904;2023-04-26T05:58:25;15.70;;;4.53;;
10473;SDS011;5284;50.446;7.904;2023-04-26T06:03:29;13.10;;;4.20;;
10473;SDS011;5284;50.446;7.904;2023-04-26T06:08:35;15.57;;;5.97;;
10473;SDS011;5284;50.446;7.904;2023-04-26T06:13:41;12.95;;;5.15;;
10473;SDS011;5284;50.446;7.904;2023-04-26T06:18:45;12.75;;;4.22;;
10473;SDS011;5284;50.446;7.904;2023-04-26T06:23:48;17.73;;;7.45;;
10473;SDS011;5284;50.446;7.904;2023-04-26T06:28:55;28.33;;;8.52;;
10473;SDS011;5284;50.446;7.904;2023-04-26T06:33:57;12.90;;;5.22;;
10473;SDS011;5284;50.446;7.904;2023-04-26T06:39:01;11.75;;;5.40;;
10473;SDS011;5284;50.446;7.904;2023-04-26T06:44:07;25.17;;;5.13;;
10473;SDS011;5284;50.446;7.904;2023-04-26T06:49:15;11.90;;;4.65;;
10473;SDS011;5284;50.446;7.904;2023-04-26T06:54:20;10.68;;;3.97;;
10473;SDS011;5284;50.446;7.904;2023-04-26T06:59:25;13.75;;;3.83;;
10473;SDS011;5284;50.446;7.904;2023-04-26T07:04:28;14.20;;;3.17;;
10473;SDS011;5284;50.446;7.904;2023-04-26T07:09:32;14.70;;;3.92;;
10473;SDS011;5284;50.446;7.904;2023-04-26T07:14:37;18.92;;;3.50;;
10473;SDS011;5284;50.446;7.904;2023-04-26T07:19:43;13.23;;;3.75;;
10473;SDS011;5284;50.446;7.904;2023-04-26T07:24:46;13.15;;;2.92;;
10473;SDS011;5284;50.446;7.904;2023-04-26T07:29:53;18.70;;;3.33;;
10473;SDS011;5284;50.446;7.904;2023-04-26T07:34:56;17.02;;;3.78;;
10473;SDS011;5284;50.446;7.904;2023-04-26T07:40:00;15.57;;;4.45;;
10473;SDS011;5284;50.446;7.904;2023-04-26T07:45:10;18.55;;;5.57;;
10473;SDS011;5284;50.446;7.904;2023-04-26T07:50:15;20.50;;;5.35;;
10473;SDS011;5284;50.446;7.904;2023-04-26T07:55:18;12.55;;;4.63;;
10473;SDS011;5284;50.446;7.904;2023-04-26T08:00:24;20.80;;;5.30;;
10473;SDS011;5284;50.446;7.904;2023-04-26T08:05:27;17.63;;;4.18;;
10473;SDS011;5284;50.446;7.904;2023-04-26T08:10:30;13.25;;;4.60;;
10473;SDS011;5284;50.446;7.904;2023-04-26T08:15:34;13.65;;;4.72;;
10473;SDS011;5284;50.446;7.904;2023-04-26T08:20:37;12.23;;;4.47;;
10473;SDS011;5284;50.446;7.904;2023-04-26T08:25:40;11.38;;;3.10;;
10473;SDS011;5284;50.446;7.904;2023-04-26T08:30:44;16.83;;;3.83;;
10473;SDS011;5284;50.446;7.904;2023-04-26T08:35:47;13.65;;;3.97;;
10473;SDS011;5284;50.446;7.904;2023-04-26T08:40:50;13.27;;;3.97;;
10473;SDS011;5284;50.446;7.904;2023-04-26T08:45:56;15.65;;;4.30;;
10473;SDS011;5284;50.446;7.904;2023-04-26T08:51:00;15.30;;;3.15;;
10473;SDS011;5284;50.446;7.904;2023-04-26T08:56:06;6.88;;;2.78;;
10473;SDS011;5284;50.446;7.904;2023-04-26T09:01:16;9.30;;;2.58;;
10473;SDS011;5284;50.446;7.904;2023-04-26T09:06:22;6.07;;;2.15;;
10473;SDS011;5284;50.446;7.904;2023-04-26T09:11:25;12.95;;;2.70;;
10473;SDS011;5284;50.446;7.904;2023-04-26T09:16:36;9.40;;;2.97;;
10473;SDS011;5284;50.446;7.904;2023-04-26T09:21:41;11.35;;;2.78;;
10473;SDS011;5284;50.446;7.904;2023-04-26T09:27:58;9.68;;;2.40;;
10473;SDS011;5284;50.446;7.904;2023-04-26T09:33:03;9.98;;;2.70;;
10473;SDS011;5284;50.446;7.904;2023-04-26T09:38:09;9.18;;;2.58;;
10473;SDS011;5284;50.446;7.904;2023-04-26T09:43:15;8.70;;;2.15;;
10473;SDS011;5284;50.446;7.904;2023-04-26T09:48:20;8.75;;;2.60;;
10473;SDS011;5284;50.446;7.904;2023-04-26T09:53:28;5.93;;;2.42;;
10473;SDS011;5284;50.446;7.904;2023-04-26T09:58:32;7.70;;;2.42;;
10473;SDS011;5284;50.446;7.904;2023-04-26T10:03:38;13.88;;;2.92;;
10473;SDS011;5284;50.446;7.904;2023-04-26T10:08:42;12.32;;;2.75;;
10473;SDS011;5284;50.446;7.904;2023-04-26T10:13:46;8.10;;;2.53;;
10473;SDS011;5284;50.446;7.904;2023-04-26T10:18:53;11.03;;;2.53;;
10473;SDS011;5284;50.446;7.904;2023-04-26T10:24:00;10.48;;;2.97;;
10473;SDS011;5284;50.446;7.904;2023-04-26T10:29:03;7.93;;;2.15;;
10473;SDS011;5284;50.446;7.904;2023-04-26T10:34:20;12.02;;;2.55;;
10473;SDS011;5284;50.446;7.904;2023-04-26T10:39:24;4.40;;;2.20;;
10473;SDS011;5284;50.446;7.904;2023-04-26T10:49:51;2.72;;;1.63;;
10473;SDS011;5284;50.446;7.904;2023-04-26T10:54:56;9.98;;;2.55;;
10473;SDS011;5284;50.446;7.904;2023-04-26T11:00:16;8.52;;;2.65;;
10473;SDS011;5284;50.446;7.904;2023-04-26T11:05:33;3.67;;;1.65;;
10473;SDS011;5284;50.446;7.904;2023-04-26T11:10:39;8.63;;;2.15;;
10473;SDS011;5284;50.446;7.904;2023-04-26T11:15:45;7.65;;;2.08;;
10473;SDS011;5284;50.446;7.904;2023-04-26T11:20:54;4.05;;;2.10;;
10473;SDS011;5284;50.446;7.904;2023-04-26T11:25:57;6.20;;;2.10;;
10473;SDS011;5284;50.446;7.904;2023-04-26T11:31:01;13.20;;;2.95;;
10473;SDS011;5284;50.446;7.904;2023-04-26T11:36:07;8.88;;;4.05;;
10473;SDS011;5284;50.446;7.904;2023-04-26T11:41:10;7.15;;;2.50;;
10473;SDS011;5284;50.446;7.904;2023-04-26T11:46:13;9.38;;;2.38;;
10473;SDS011;5284;50.446;7.904;2023-04-26T11:51:18;11.18;;;3.00;;
10473;SDS011;5284;50.446;7.904;2023-04-26T11:56:23;10.90;;;3.07;;
10473;SDS011;5284;50.446;7.904;2023-04-26T12:01:28;17.55;;;7.07;;
10473;SDS011;5284;50.446;7.904;2023-04-26T12:06:40;7.18;;;2.80;;
10473;SDS011;5284;50.446;7.904;2023-04-26T12:11:47;13.95;;;2.85;;
10473;SDS011;5284;50.446;7.904;2023-04-26T12:16:51;21.27;;;9.45;;
10473;SDS011;5284;50.446;7.904;2023-04-26T12:21:55;18.23;;;9.27;;
10473;SDS011;5284;50.446;7.904;2023-04-26T12:27:01;10.50;;;3.70;;
10473;SDS011;5284;50.446;7.904;2023-04-26T12:32:04;9.15;;;3.20;;
10473;SDS011;5284;50.446;7.904;2023-04-26T12:37:10;9.00;;;2.90;;
10473;SDS011;5284;50.446;7.904;2023-04-26T12:42:12;10.18;;;2.40;;
10473;SDS011;5284;50.446;7.904;2023-04-26T12:47:15;9.85;;;3.08;;
10473;SDS011;5284;50.446;7.904;2023-04-26T12:52:21;20.83;;;3.08;;
10473;SDS011;5284;50.446;7.904;2023-04-26T12:57:24;10.32;;;2.40;;
10473;SDS011;5284;50.446;7.904;2023-04-26T13:02:27;6.68;;;2.40;;
10473;SDS011;5284;50.446;7.904;2023-04-26T13:07:32;9.80;;;3.05;;
10473;SDS011;5284;50.446;7.904;2023-04-26T13:12:37;12.65;;;3.00;;
10473;SDS011;5284;50.446;7.904;2023-04-26T13:17:40;7.03;;;2.42;;
10473;SDS011;5284;50.446;7.904;2023-04-26T13:22:48;23.75;;;2.63;;
10473;SDS011;5284;50.446;7.904;2023-04-26T13:27:52;9.05;;;2.50;;
10473;SDS011;5284;50.446;7.904;2023-04-26T13:32:57;14.20;;;2.35;;
10473;SDS011;5284;50.446;7.904;2023-04-26T13:38:02;4.68;;;2.20;;
10473;SDS011;5284;50.446;7.904;2023-04-26T13:43:05;7.10;;;2.22;;
10473;SDS011;5284;50.446;7.904;2023-04-26T13:48:08;7.70;;;3.65;;
10473;SDS011;5284;50.446;7.904;2023-04-26T13:53:13;6.75;;;2.60;;
10473;SDS011;5284;50.446;7.904;2023-04-26T13:58:16;14.68;;;6.18;;
10473;SDS011;5284;50.446;7.904;2023-04-26T14:03:19;14.88;;;5.75;;
10473;SDS011;5284;50.446;7.904;2023-04-26T14:08:25;16.15;;;4.47;;
10473;SDS011;5284;50.446;7.904;2023-04-26T14:13:28;5.45;;;2.92;;
10473;SDS011;5284;50.446;7.904;2023-04-26T14:18:31;7.07;;;3.28;;
10473;SDS011;5284;50.446;7.904;2023-04-26T14:23:37;12.45;;;3.10;;
10473;SDS011;5284;50.446;7.904;2023-04-26T14:28:40;10.73;;;3.22;;
10473;SDS011;5284;50.446;7.904;2023-04-26T14:33:43;11.70;;;3.38;;
10473;SDS011;5284;50.446;7.904;2023-04-26T14:38:49;14.93;;;2.83;;
10473;SDS011;5284;50.446;7.904;2023-04-26T14:43:52;7.63;;;2.63;;
10473;SDS011;5284;50.446;7.904;2023-04-26T14:48:54;9.70;;;3.92;;
10473;SDS011;5284;50.446;7.904;2023-04-26T14:53:59;8.30;;;2.55;;
10473;SDS011;5284;50.446;7.904;2023-04-26T14:59:03;9.35;;;2.88;;
10473;SDS011;5284;50.446;7.904;2023-04-26T15:04:06;11.20;;;2.73;;
10473;SDS011;5284;50.446;7.904;2023-04-26T15:09:11;9.00;;;2.80;;
10473;SDS011;5284;50.446;7.904;2023-04-26T15:19:16;7.45;;;2.92;;
10473;SDS011;5284;50.446;7.904;2023-04-26T15:24:21;10.05;;;3.05;;
10473;SDS011;5284;50.446;7.904;2023-04-26T15:29:24;7.05;;;2.78;;
10473;SDS011;5284;50.446;7.904;2023-04-26T15:34:28;12.50;;;3.92;;
10473;SDS011;5284;50.446;7.904;2023-04-26T15:39:41;8.82;;;2.75;;
10473;SDS011;5284;50.446;7.904;2023-04-26T15:44:44;7.15;;;2.45;;
10473;SDS011;5284;50.446;7.904;2023-04-26T15:49:50;6.25;;;2.17;;
10473;SDS011;5284;50.446;7.904;2023-04-26T15:54:57;11.30;;;3.05;;
10473;SDS011;5284;50.446;7.904;2023-04-26T16:00:01;7.75;;;2.95;;
10473;SDS011;5284;50.446;7.904;2023-04-26T16:05:08;12.52;;;3.88;;
10473;SDS011;5284;50.446;7.904;2023-04-26T16:10:12;32.83;;;10.53;;
10473;SDS011;5284;50.446;7.904;2023-04-26T16:15:15;7.43;;;3.05;;
10473;SDS011;5284;50.446;7.904;2023-04-26T16:20:18;4.32;;;2.25;;
10473;SDS011;5284;50.446;7.904;2023-04-26T16:25:24;7.20;;;2.50;;
10473;SDS011;5284;50.446;7.904;2023-04-26T16:30:27;17.85;;;6.65;;
10473;SDS011;5284;50.446;7.904;2023-04-26T16:35:30;6.27;;;2.20;;
10473;SDS011;5284;50.446;7.904;2023-04-26T16:40:35;4.85;;;1.90;;
10473;SDS011;5284;50.446;7.904;2023-04-26T16:45:38;6.55;;;2.28;;
10473;SDS011;5284;50.446;7.904;2023-04-26T16:50:41;5.65;;;2.15;;
10473;SDS011;5284;50.446;7.904;2023-04-26T16:55:45;7.35;;;3.20;;
10473;SDS011;5284;50.446;7.904;2023-04-26T17:00:48;6.32;;;2.35;;
10473;SDS011;5284;50.446;7.904;2023-04-26T17:05:51;5.82;;;2.28;;
10473;SDS011;5284;50.446;7.904;2023-04-26T17:10:57;9.57;;;3.97;;
10473;SDS011;5284;50.446;7.904;2023-04-26T17:16:00;13.63;;;3.47;;
10473;SDS011;5284;50.446;7.904;2023-04-26T17:21:03;6.43;;;2.58;;
10473;SDS011;5284;50.446;7.904;2023-04-26T17:26:08;9.25;;;2.65;;
10473;SDS011;5284;50.446;7.904;2023-04-26T17:31:12;8.48;;;3.00;;
10473;SDS011;5284;50.446;7.904;2023-04-26T17:36:14;8.80;;;2.60;;
10473;SDS011;5284;50.446;7.904;2023-04-26T17:41:19;10.60;;;2.50;;
10473;SDS011;5284;50.446;7.904;2023-04-26T17:46:23;13.07;;;3.15;;
10473;SDS011;5284;50.446;7.904;2023-04-26T17:51:27;10.82;;;2.63;;
10473;SDS011;5284;50.446;7.904;2023-04-26T17:56:32;10.48;;;2.63;;
10473;SDS011;5284;50.446;7.904;2023-04-26T18:01:35;11.98;;;3.40;;
10473;SDS011;5284;50.446;7.904;2023-04-26T18:06:38;6.93;;;2.65;;
10473;SDS011;5284;50.446;7.904;2023-04-26T18:11:42;10.25;;;3.20;;
10473;SDS011;5284;50.446;7.904;2023-04-26T18:16:49;5.40;;;2.90;;
10473;SDS011;5284;50.446;7.904;2023-04-26T18:21:52;10.90;;;3.30;;
10473;SDS011;5284;50.446;7.904;2023-04-26T18:26:57;13.20;;;3.15;;
10473;SDS011;5284;50.446;7.904;2023-04-26T18:32:00;5.30;;;2.63;;
10473;SDS011;5284;50.446;7.904;2023-04-26T18:37:04;3.35;;;2.03;;
10473;SDS011;5284;50.446;7.904;2023-04-26T18:42:08;8.35;;;2.90;;
10473;SDS011;5284;50.446;7.904;2023-04-26T18:47:11;11.63;;;5.03;;
10473;SDS011;5284;50.446;7.904;2023-04-26T18:52:13;11.07;;;4.72;;
10473;SDS011;5284;50.446;7.904;2023-04-26T18:57:18;8.02;;;3.47;;
10473;SDS011;5284;50.446;7.904;2023-04-26T19:02:22;15.05;;;4.30;;
10473;SDS011;5284;50.446;7.904;2023-04-26T19:07:25;22.48;;;6.75;;
10473;SDS011;5284;50.446;7.904;2023-04-26T19:12:32;8.43;;;4.20;;
10473;SDS011;5284;50.446;7.904;2023-04-26T19:17:35;15.93;;;4.00;;
10473;SDS011;5284;50.446;7.904;2023-04-26T19:22:37;11.48;;;3.72;;
10473;SDS011;5284;50.446;7.904;2023-04-26T19:27:43;12.65;;;5.20;;
10473;SDS011;5284;50.446;7.904;2023-04-26T19:32:46;17.58;;;6.63;;
10473;SDS011;5284;50.446;7.904;2023-04-26T19:37:50;16.08;;;5.50;;
10473;SDS011;5284;50.446;7.904;2023-04-26T19:42:54;38.33;;;12.15;;
10473;SDS011;5284;50.446;7.904;2023-04-26T19:47:58;47.15;;;17.67;;
10473;SDS011;5284;50.446;7.904;2023-04-26T19:53:01;25.35;;;9.98;;
10473;SDS011;5284;50.446;7.904;2023-04-26T19:58:07;13.23;;;6.93;;
10473;SDS011;5284;50.446;7.904;2023-04-26T20:03:12;16.52;;;7.28;;
10473;SDS011;5284;50.446;7.904;2023-04-26T20:08:15;26.10;;;7.40;;
10473;SDS011;5284;50.446;7.904;2023-04-26T20:13:20;15.40;;;7.45;;
10473;SDS011;5284;50.446;7.904;2023-04-26T20:18:23;13.35;;;6.32;;
10473;SDS011;5284;50.446;7.904;2023-04-26T20:23:26;19.40;;;7.80;;
10473;SDS011;5284;50.446;7.904;2023-04-26T20:28:30;21.42;;;9.30;;
10473;SDS011;5284;50.446;7.904;2023-04-26T20:33:33;55.00;;;19.13;;
10473;SDS011;5284;50.446;7.904;2023-04-26T20:38:37;33.03;;;13.48;;
10473;SDS011;5284;50.446;7.904;2023-04-26T20:43:41;35.55;;;12.98;;
10473;SDS011;5284;50.446;7.904;2023-04-26T20:48:45;51.30;;;15.65;;
10473;SDS011;5284;50.446;7.904;2023-04-26T20:53:48;39.90;;;13.80;;
10473;SDS011;5284;50.446;7.904;2023-04-26T20:58:52;41.83;;;14.23;;
10473;SDS011;5284;50.446;7.904;2023-04-26T21:03:55;50.60;;;15.10;;
10473;SDS011;5284;50.446;7.904;2023-04-26T21:08:58;41.28;;;13.88;;
10473;SDS011;5284;50.446;7.904;2023-04-26T21:14:02;38.70;;;13.48;;
10473;SDS011;5284;50.446;7.904;2023-04-26T21:19:07;24.23;;;10.02;;
10473;SDS011;5284;50.446;7.904;2023-04-26T21:24:12;17.60;;;5.68;;
10473;SDS011;5284;50.446;7.904;2023-04-26T21:29:16;10.98;;;5.53;;
10473;SDS011;5284;50.446;7.904;2023-04-26T21:34:19;21.08;;;8.13;;
10473;SDS011;5284;50.446;7.904;2023-04-26T21:39:21;18.90;;;7.88;;
10473;SDS011;5284;50.446;7.904;2023-04-26T21:44:26;20.38;;;8.93;;
10473;SDS011;5284;50.446;7.904;2023-04-26T21:49:29;22.67;;;9.20;;
10473;SDS011;5284;50.446;7.904;2023-04-26T21:54:31;23.77;;;9.25;;
10473;SDS011;5284;50.446;7.904;2023-04-26T21:59:37;17.88;;;8.32;;
10473;SDS011;5284;50.446;7.904;2023-04-26T22:04:42;23.00;;;9.10;;
10473;SDS011;5284;50.446;7.904;2023-04-26T22:09:45;24.63;;;9.20;;
10473;SDS011;5284;50.446;7.904;2023-04-26T22:14:50;17.00;;;7.32;;
10473;SDS011;5284;50.446;7.904;2023-04-26T22:19:53;18.52;;;7.25;;
10473;SDS011;5284;50.446;7.904;2023-04-26T22:24:57;21.65;;;8.88;;
10473;SDS011;5284;50.446;7.904;2023-04-26T22:30:01;22.40;;;8.35;;
10473;SDS011;5284;50.446;7.904;2023-04-26T22:35:21;29.15;;;10.10;;
10473;SDS011;5284;50.446;7.904;2023-04-26T22:40:24;20.52;;;9.35;;
10473;SDS011;5284;50.446;7.904;2023-04-26T22:45:28;17.13;;;8.80;;
10473;SDS011;5284;50.446;7.904;2023-04-26T22:50:31;20.92;;;8.55;;
10473;SDS011;5284;50.446;7.904;2023-04-26T22:55:34;21.85;;;9.18;;
10473;SDS011;5284;50.446;7.904;2023-04-26T23:00:38;23.20;;;9.13;;
10473;SDS011;5284;50.446;7.904;2023-04-26T23:05:41;18.30;;;7.53;;
10473;SDS011;5284;50.446;7.904;2023-04-26T23:10:44;18.67;;;6.18;;
10473;SDS011;5284;50.446;7.904;2023-04-26T23:15:48;12.35;;;5.82;;
10473;SDS011;5284;50.446;7.904;2023-04-26T23:20:51;17.58;;;6.45;;
10473;SDS011;5284;50.446;7.904;2023-04-26T23:25:53;12.50;;;6.07;;
10473;SDS011;5284;50.446;7.904;2023-04-26T23:30:58;16.90;;;7.25;;
10473;SDS011;5284;50.446;7.904;2023-04-26T23:36:01;20.23;;;8.43;;
10473;SDS011;5284;50.446;7.904;2023-04-26T23:41:04;12.35;;;6.25;;
10473;SDS011;5284;50.446;7.904;2023-04-26T23:46:08;14.43;;;6.30;;
10473;SDS011;5284;50.446;7.904;2023-04-26T23:51:11;18.02;;;7.38;;
10473;SDS011;5284;50.446;7.904;2023-04-26T23:56:14;19.52;;;6.75;;
